Time;durP1;ratioP1;P1;durP2;ratioP2;P2;SDS_P1;SDS_P2;PMS_P1;PMS_P2;Temp;Humidity;BMP_temperature;BMP_pressure;BME280_temperature;BME280_humidity;BME280_pressure;Samples;Min_cycle;Max_cycle;Signal;HPM_P1;HPM_P2
2023/09/27 00:00:14;;;;;;;0.10;0.10;;;;;;;13.59;79.85;98019.22;4982741;28;20117;-72
2023/09/27 00:02:42;;;;;;;0.10;0.10;;;;;;;13.45;79.93;98022.03;4982192;28;20117;-74
2023/09/27 00:05:12;;;;;;;0.20;0.20;;;;;;;13.33;80.30;98027.16;4984310;28;20042;-73
2023/09/27 00:07:41;;;;;;;0.25;0.25;;;;;;;13.18;80.70;98035.34;4981570;28;20134;-72
2023/09/27 00:10:11;;;;;;;0.20;0.20;;;;;;;13.11;80.85;98030.97;4982216;28;20046;-73
2023/09/27 00:12:39;;;;;;;0.15;0.15;;;;;;;13.03;80.77;98028.44;4982219;28;20046;-73
2023/09/27 00:15:09;;;;;;;0.20;0.20;;;;;;;12.91;81.30;98028.19;4983311;28;20074;-75
2023/09/27 00:17:37;;;;;;;0.20;0.20;;;;;;;12.80;81.48;98029.56;4981119;28;20118;-72
2023/09/27 00:20:09;;;;;;;0.17;0.17;;;;;;;12.78;81.33;98026.25;4982722;28;20050;-71
2023/09/27 00:22:38;;;;;;;0.17;0.17;;;;;;;12.78;81.39;98030.78;4981287;28;20089;-73
2023/09/27 00:25:10;;;;;;;0.10;0.10;;;;;;;12.78;81.48;98023.59;4982202;28;20214;-74
2023/09/27 00:27:38;;;;;;;0.10;0.10;;;;;;;12.85;81.57;98029.81;4981228;28;20046;-75
2023/09/27 00:30:08;;;;;;;0.10;0.10;;;;;;;12.82;81.42;98030.22;4997599;28;20054;-74
2023/09/27 00:32:35;;;;;;;0.20;0.20;;;;;;;12.80;81.11;98032.25;4981072;28;20065;-73
2023/09/27 00:35:04;;;;;;;0.10;0.10;;;;;;;12.91;81.04;98030.03;4982790;28;20038;-71
2023/09/27 00:37:35;;;;;;;0.20;0.20;;;;;;;12.87;81.07;98030.44;4997776;28;20050;-73
2023/09/27 00:40:10;;;;;;;0.10;0.10;;;;;;;12.97;80.82;98031.94;4982489;28;20511;-74
2023/09/27 00:42:38;;;;;;;0.10;0.10;;;;;;;12.90;81.28;98029.22;4996565;28;20109;-72
2023/09/27 00:45:07;;;;;;;0.20;0.20;;;;;;;12.83;82.12;98031.03;4982946;28;20052;-71
2023/09/27 00:47:36;;;;;;;0.10;0.10;;;;;;;12.84;82.09;98035.38;4982364;28;20132;-73
2023/09/27 00:50:04;;;;;;;0.15;0.15;;;;;;;12.88;81.57;98040.13;4983082;28;20070;-72
2023/09/27 00:52:32;;;;;;;0.15;0.15;;;;;;;12.78;81.84;98030.78;4998643;28;20050;-71
2023/09/27 00:55:00;;;;;;;0.20;0.20;;;;;;;12.84;81.77;98022.81;4983532;28;20105;-71
2023/09/27 00:57:29;;;;;;;0.20;0.20;;;;;;;12.97;80.66;98024.72;4986462;28;20042;-71
2023/09/27 00:59:57;;;;;;;0.10;0.10;;;;;;;13.02;80.33;98019.59;4999484;28;20126;-71
2023/09/27 01:02:25;;;;;;;0.10;0.10;;;;;;;13.07;79.81;98025.19;4980645;28;20057;-71
2023/09/27 01:04:53;;;;;;;0.10;0.10;;;;;;;12.86;80.00;98017.25;4981125;28;20400;-71
2023/09/27 01:07:21;;;;;;;0.20;0.20;;;;;;;12.85;80.02;98008.38;4981130;28;20050;-74
2023/09/27 01:09:49;;;;;;;0.10;0.10;;;;;;;12.83;80.42;98009.59;4983206;28;20041;-71
2023/09/27 01:12:17;;;;;;;0.17;0.17;;;;;;;12.87;79.79;98013.56;4980212;28;20130;-74
2023/09/27 01:14:46;;;;;;;0.10;0.10;;;;;;;12.92;79.36;98004.91;4981904;28;20052;-72
2023/09/27 01:17:14;;;;;;;0.20;0.20;;;;;;;12.97;79.17;97997.94;4980102;28;20113;-72
2023/09/27 01:19:42;;;;;;;0.22;0.22;;;;;;;12.80;78.89;98007.31;4982361;28;20079;-72
2023/09/27 01:22:09;;;;;;;0.10;0.10;;;;;;;12.74;79.38;97998.25;4981687;28;20416;-72
2023/09/27 01:24:39;;;;;;;0.20;0.20;;;;;;;12.65;79.88;97991.41;4997178;28;20471;-75
2023/09/27 01:27:10;;;;;;;0.20;0.20;;;;;;;12.61;80.19;97990.13;4986200;28;20086;-72
2023/09/27 01:29:38;;;;;;;0.10;0.10;;;;;;;12.49;79.72;97991.69;4986131;28;20042;-69
2023/09/27 01:32:06;;;;;;;0.20;0.20;;;;;;;12.62;79.35;97991.78;4982822;28;20492;-71
2023/09/27 01:34:34;;;;;;;0.30;0.30;;;;;;;12.50;79.68;97988.81;4983849;28;20062;-71
2023/09/27 01:37:02;;;;;;;0.30;0.30;;;;;;;12.52;79.52;97993.16;4982018;28;20126;-72
2023/09/27 01:39:31;;;;;;;0.20;0.20;;;;;;;12.56;79.33;97997.09;4987877;28;20129;-75
2023/09/27 01:42:00;;;;;;;0.20;0.20;;;;;;;12.58;78.97;98001.22;4987177;28;20046;-73
2023/09/27 01:44:27;;;;;;;0.10;0.10;;;;;;;12.55;79.53;97990.94;5006785;28;20373;-71
2023/09/27 01:46:55;;;;;;;0.20;0.20;;;;;;;12.64;79.20;98000.44;4988422;28;20034;-74
2023/09/27 01:49:23;;;;;;;0.10;0.10;;;;;;;12.45;79.58;98001.16;4998411;28;20057;-75
2023/09/27 01:51:51;;;;;;;0.20;0.20;;;;;;;12.39;80.66;98013.47;4993034;28;20133;-73
2023/09/27 01:54:19;;;;;;;0.20;0.20;;;;;;;12.15;81.08;98015.78;5008013;28;20080;-71
2023/09/27 01:56:47;;;;;;;0.20;0.20;;;;;;;12.05;80.80;98018.75;5001304;28;20484;-72
2023/09/27 01:59:16;;;;;;;0.10;0.10;;;;;;;11.97;81.07;98019.72;5002421;28;20144;-72
2023/09/27 02:01:44;;;;;;;0.20;0.20;;;;;;;11.91;81.62;98030.38;4991615;28;20069;-73
2023/09/27 02:04:12;;;;;;;0.20;0.20;;;;;;;11.83;82.49;98027.84;4991161;28;20047;-72
2023/09/27 02:06:40;;;;;;;0.13;0.13;;;;;;;11.96;81.22;98031.44;4991510;28;20062;-72
2023/09/27 02:09:08;;;;;;;0.10;0.10;;;;;;;11.93;81.43;98029.19;4986775;28;20038;-73
2023/09/27 02:11:36;;;;;;;0.15;0.15;;;;;;;11.82;81.94;98042.22;4984494;28;20050;-72
2023/09/27 02:14:04;;;;;;;0.20;0.20;;;;;;;11.71;82.59;98038.19;4985004;28;20138;-74
2023/09/27 02:16:34;;;;;;;0.10;0.10;;;;;;;11.70;83.06;98033.84;4985307;28;20510;-73
2023/09/27 02:19:04;;;;;;;0.25;0.25;;;;;;;11.70;83.37;98036.53;4983853;28;20066;-75
2023/09/27 02:21:32;;;;;;;0.20;0.20;;;;;;;11.70;83.73;98042.72;5000685;28;20054;-75
2023/09/27 02:24:00;;;;;;;0.22;0.22;;;;;;;11.74;83.87;98040.47;4984230;28;20135;-76
2023/09/27 02:26:28;;;;;;;0.20;0.20;;;;;;;11.73;84.41;98034.28;5001473;28;20046;-74
2023/09/27 02:28:56;;;;;;;0.20;0.20;;;;;;;11.73;84.60;98028.13;4988434;28;20097;-75
2023/09/27 02:31:24;;;;;;;0.13;0.13;;;;;;;11.77;84.54;98032.94;4985258;28;20039;-69
2023/09/27 02:33:54;;;;;;;0.20;0.20;;;;;;;11.81;84.66;98030.72;4984191;28;20042;-74
2023/09/27 02:36:22;;;;;;;0.10;0.10;;;;;;;11.88;84.49;98041.47;4983951;28;20042;-69
2023/09/27 02:38:50;;;;;;;0.20;0.20;;;;;;;11.82;84.77;98037.72;4985240;28;20061;-69
2023/09/27 02:41:18;;;;;;;0.10;0.10;;;;;;;11.93;84.19;98036.38;4983508;28;20472;-69
2023/09/27 02:43:46;;;;;;;0.17;0.17;;;;;;;11.95;84.61;98031.63;4983991;28;20046;-69
2023/09/27 02:46:13;;;;;;;0.10;0.10;;;;;;;11.98;84.29;98028.59;4988914;28;20385;-69
2023/09/27 02:48:41;;;;;;;0.20;0.20;;;;;;;12.03;84.18;98027.00;5000750;28;20057;-70
2023/09/27 02:51:14;;;;;;;0.20;0.20;;;;;;;12.14;83.42;98031.00;4999574;28;20141;-69
2023/09/27 02:53:42;;;;;;;0.20;0.20;;;;;;;12.19;83.55;98028.56;4984700;28;20046;-69
2023/09/27 02:56:11;;;;;;;0.30;0.30;;;;;;;12.36;82.10;98042.47;4984477;28;20035;-69
2023/09/27 02:58:38;;;;;;;0.20;0.20;;;;;;;12.25;82.20;98033.13;4983531;28;20408;-69
2023/09/27 03:01:07;;;;;;;0.13;0.13;;;;;;;12.22;82.17;98038.88;4984062;28;20092;-69
2023/09/27 03:03:35;;;;;;;0.30;0.30;;;;;;;12.15;82.23;98023.81;4984999;28;20105;-69
2023/09/27 03:06:04;;;;;;;0.10;0.10;;;;;;;12.15;82.18;98023.81;5000754;28;20104;-71
2023/09/27 03:08:33;;;;;;;0.20;0.20;;;;;;;12.00;81.49;98003.31;4995275;28;20054;-69
2023/09/27 03:11:03;;;;;;;0.20;0.20;;;;;;;11.91;81.99;98015.16;4989334;28;20039;-72
2023/09/27 03:13:36;;;;;;;0.15;0.15;;;;;;;12.05;81.33;98016.91;5000775;28;20065;-69
2023/09/27 03:16:04;;;;;;;0.20;0.20;;;;;;;11.92;81.63;98034.72;4999751;28;20508;-70
2023/09/27 03:18:32;;;;;;;0.20;0.20;;;;;;;11.82;81.53;98028.84;4983971;28;20039;-70
2023/09/27 03:21:00;;;;;;;0.25;0.25;;;;;;;11.80;81.60;98034.41;4998858;28;20130;-71
2023/09/27 03:23:28;;;;;;;0.10;0.10;;;;;;;11.85;81.62;98031.97;4999645;28;20187;-71
2023/09/27 03:25:57;;;;;;;0.20;0.20;;;;;;;11.88;81.48;98033.44;4982400;28;20046;-70
2023/09/27 03:28:26;;;;;;;0.43;0.30;;;;;;;12.03;80.91;98034.19;4998849;28;20038;-71
2023/09/27 03:30:54;;;;;;;0.20;0.20;;;;;;;12.11;80.18;98044.75;4987148;28;20047;-70
2023/09/27 03:33:22;;;;;;;0.28;0.28;;;;;;;12.03;79.60;98059.09;5000098;28;20100;-69
2023/09/27 03:35:51;;;;;;;0.10;0.10;;;;;;;11.91;80.22;98060.63;5000724;28;20049;-72
2023/09/27 03:38:19;;;;;;;0.13;0.13;;;;;;;11.79;80.88;98053.31;4981725;28;20124;-70
2023/09/27 03:40:48;;;;;;;0.20;0.20;;;;;;;11.72;80.93;98066.59;4982382;28;20700;-71
2023/09/27 03:43:17;;;;;;;0.20;0.20;;;;;;;11.60;82.24;98068.94;5000645;28;20069;-70
2023/09/27 03:45:45;;;;;;;0.10;0.10;;;;;;;11.50;82.10;98065.72;4989496;28;20134;-71
2023/09/27 03:48:13;;;;;;;0.10;0.10;;;;;;;11.32;82.37;98058.09;4984576;28;20061;-73
2023/09/27 03:50:40;;;;;;;0.15;0.15;;;;;;;11.32;82.40;98067.97;5007068;28;20042;-73
2023/09/27 03:53:08;;;;;;;0.25;0.25;;;;;;;11.40;81.88;98068.72;5005477;28;20046;-70
2023/09/27 03:55:36;;;;;;;0.25;0.25;;;;;;;11.25;82.53;98062.56;4983109;28;20514;-70
2023/09/27 03:58:04;;;;;;;0.20;0.20;;;;;;;11.12;83.25;98056.22;4988759;28;20044;-70
2023/09/27 04:00:33;;;;;;;0.25;0.25;;;;;;;11.06;84.47;98060.47;4989457;28;20112;-70
2023/09/27 04:03:00;;;;;;;0.20;0.20;;;;;;;11.09;84.75;98051.25;4988273;28;20074;-70
2023/09/27 04:05:28;;;;;;;0.10;0.10;;;;;;;11.16;84.83;98047.66;4981289;28;20074;-70
2023/09/27 04:07:57;;;;;;;0.20;0.20;;;;;;;11.20;84.98;98046.28;4985726;28;20141;-73
2023/09/27 04:10:28;;;;;;;0.20;0.20;;;;;;;11.24;84.99;98041.34;4994595;28;20046;-69
2023/09/27 04:12:56;;;;;;;0.20;0.20;;;;;;;11.32;85.09;98035.91;4982908;28;20073;-69
2023/09/27 04:15:24;;;;;;;0.30;0.30;;;;;;;11.49;84.58;98049.88;4981733;28;20058;-71
2023/09/27 04:17:53;;;;;;;0.20;0.20;;;;;;;11.66;84.57;98054.78;4984194;28;20059;-73
2023/09/27 04:20:21;;;;;;;0.40;0.40;;;;;;;11.84;83.59;98056.22;4984020;28;20044;-72
2023/09/27 04:22:50;;;;;;;0.20;0.20;;;;;;;11.60;85.15;98052.88;4985991;28;20068;-73
2023/09/27 04:25:19;;;;;;;0.20;0.20;;;;;;;11.59;85.16;98043.22;4985598;28;20510;-72
2023/09/27 04:27:49;;;;;;;0.17;0.17;;;;;;;11.60;84.65;98042.19;4985229;28;20536;-71
2023/09/27 04:30:19;;;;;;;0.30;0.30;;;;;;;11.70;84.48;98036.53;4988204;28;20093;-71
2023/09/27 04:32:49;;;;;;;0.28;0.28;;;;;;;11.65;83.75;98039.75;4988722;28;20129;-71
2023/09/27 04:35:19;;;;;;;0.17;0.17;;;;;;;11.76;83.47;98043.81;4988931;28;20053;-71
2023/09/27 04:37:48;;;;;;;0.20;0.20;;;;;;;11.66;83.34;98051.28;4975385;28;20094;-71
2023/09/27 04:40:17;;;;;;;0.30;0.30;;;;;;;11.67;83.33;98045.75;4981147;28;20046;-73
2023/09/27 04:42:45;;;;;;;0.10;0.10;;;;;;;11.54;83.58;98045.59;4983824;28;20074;-71
2023/09/27 04:45:14;;;;;;;0.20;0.20;;;;;;;11.55;83.34;98044.59;4986152;28;20109;-72
2023/09/27 04:47:44;;;;;;;0.20;0.20;;;;;;;11.53;82.78;98043.13;4981046;28;20056;-73
2023/09/27 04:50:13;;;;;;;0.20;0.20;;;;;;;11.44;82.35;98042.41;4985029;28;20065;-70
2023/09/27 04:52:43;;;;;;;0.20;0.20;;;;;;;11.32;82.56;98041.25;4991904;28;20463;-71
2023/09/27 04:55:12;;;;;;;0.20;0.20;;;;;;;11.23;82.74;98051.22;4993649;28;20480;-71
2023/09/27 04:57:40;;;;;;;0.10;0.10;;;;;;;11.24;82.56;98047.53;4991269;28;20415;-73
2023/09/27 05:00:14;;;;;;;0.20;0.20;;;;;;;11.26;83.00;98040.16;4985550;28;20365;-72
2023/09/27 05:02:42;;;;;;;0.13;0.13;;;;;;;11.30;83.03;98049.47;4988855;28;20046;-71
2023/09/27 05:05:10;;;;;;;0.20;0.20;;;;;;;11.43;82.60;98048.78;4996448;28;20125;-71
2023/09/27 05:07:39;;;;;;;0.17;0.17;;;;;;;11.54;82.08;98058.97;4990348;28;20069;-70
2023/09/27 05:10:10;;;;;;;0.13;0.13;;;;;;;11.50;82.04;98060.38;4990894;28;20049;-71
2023/09/27 05:12:39;;;;;;;0.20;0.20;;;;;;;11.61;81.69;98072.44;4991735;28;20532;-72
2023/09/27 05:15:07;;;;;;;0.30;0.30;;;;;;;11.75;80.99;98072.41;4994389;28;20046;-72
2023/09/27 05:17:35;;;;;;;0.17;0.17;;;;;;;11.59;82.03;98072.63;4992393;28;20046;-71
2023/09/27 05:20:06;;;;;;;0.20;0.20;;;;;;;11.51;82.55;98066.56;4994159;28;20500;-72
2023/09/27 05:22:34;;;;;;;0.30;0.30;;;;;;;11.54;82.40;98068.84;4991350;28;20101;-71
2023/09/27 05:25:03;;;;;;;0.20;0.20;;;;;;;11.51;82.20;98074.59;4992533;28;20044;-71
2023/09/27 05:27:33;;;;;;;0.13;0.13;;;;;;;11.60;81.50;98087.66;4989947;28;20046;-71
2023/09/27 05:30:01;;;;;;;0.30;0.30;;;;;;;11.72;81.30;98091.47;4990436;28;20051;-71
2023/09/27 05:32:28;;;;;;;0.20;0.20;;;;;;;11.60;81.51;98079.63;4995396;28;20129;-70
2023/09/27 05:34:56;;;;;;;0.30;0.30;;;;;;;11.60;81.90;98073.44;4980383;28;20047;-72
2023/09/27 05:37:24;;;;;;;0.20;0.20;;;;;;;11.62;81.69;98079.44;4994718;28;20034;-71
2023/09/27 05:39:52;;;;;;;0.20;0.20;;;;;;;11.66;81.73;98089.56;4989857;28;20081;-71
2023/09/27 05:42:20;;;;;;;0.28;0.28;;;;;;;11.65;81.17;98090.56;4993632;28;20038;-72
2023/09/27 05:44:49;;;;;;;0.20;0.20;;;;;;;11.62;81.56;98087.47;4991463;28;20058;-73
2023/09/27 05:47:16;;;;;;;0.20;0.20;;;;;;;11.59;81.96;98087.81;4993297;28;20040;-69
2023/09/27 05:49:44;;;;;;;0.20;0.20;;;;;;;11.66;82.26;98092.22;4995181;28;20118;-69
2023/09/27 05:52:13;;;;;;;0.13;0.13;;;;;;;11.69;82.18;98093.69;4990797;28;20395;-70
2023/09/27 05:54:41;;;;;;;0.10;0.10;;;;;;;11.75;82.17;98100.97;4995110;28;20070;-73
2023/09/27 05:57:08;;;;;;;0.35;0.35;;;;;;;11.73;82.13;98108.34;4988893;28;20564;-69
2023/09/27 05:59:40;;;;;;;0.15;0.15;;;;;;;11.78;81.98;98108.63;4995005;28;20038;-69
2023/09/27 06:02:09;;;;;;;0.30;0.30;;;;;;;11.80;82.12;98111.13;4987217;28;20070;-71
2023/09/27 06:04:37;;;;;;;0.10;0.10;;;;;;;11.79;82.39;98110.28;4994745;28;20455;-70
2023/09/27 06:07:05;;;;;;;0.20;0.20;;;;;;;11.84;82.66;98112.38;4992140;28;20056;-70
2023/09/27 06:09:34;;;;;;;0.30;0.30;;;;;;;11.84;83.05;98115.06;4993596;28;20058;-71
2023/09/27 06:12:02;;;;;;;0.30;0.30;;;;;;;11.90;82.63;98117.81;4994300;28;20081;-69
2023/09/27 06:14:29;;;;;;;0.20;0.20;;;;;;;11.99;82.64;98116.69;4994504;28;20057;-72
2023/09/27 06:16:58;;;;;;;0.25;0.25;;;;;;;11.96;82.90;98122.41;4991260;28;20046;-71
2023/09/27 06:19:27;;;;;;;0.20;0.20;;;;;;;12.11;82.62;98122.34;4993906;28;20055;-72
2023/09/27 06:21:55;;;;;;;0.30;0.30;;;;;;;12.16;82.39;98130.63;4990194;28;20042;-69
2023/09/27 06:24:22;;;;;;;0.17;0.17;;;;;;;12.27;82.72;98134.63;4992716;28;20073;-72
2023/09/27 06:26:50;;;;;;;0.30;0.30;;;;;;;12.37;82.89;98130.63;4989646;28;20430;-72
2023/09/27 06:29:19;;;;;;;0.20;0.20;;;;;;;12.40;82.32;98127.56;4992460;28;20361;-70
2023/09/27 06:31:49;;;;;;;0.28;0.15;;;;;;;12.41;82.42;98131.91;4994240;28;20048;-70
2023/09/27 06:34:17;;;;;;;0.00;0.00;;;;;;;12.41;82.50;98123.88;4991367;28;20472;-71
2023/09/27 06:36:48;;;;;;;0.20;0.20;;;;;;;12.42;82.65;98133.56;4993397;28;20047;-71
2023/09/27 06:39:16;;;;;;;0.20;0.20;;;;;;;12.48;82.37;98126.59;4987402;28;20076;-70
2023/09/27 06:41:45;;;;;;;0.20;0.20;;;;;;;12.52;82.38;98129.72;4992943;28;20046;-72
2023/09/27 06:44:14;;;;;;;0.20;0.20;;;;;;;12.58;82.51;98142.31;5002056;28;20049;-71
2023/09/27 06:46:42;;;;;;;0.20;0.20;;;;;;;12.59;82.98;98152.84;4992236;28;20058;-70
2023/09/27 06:49:16;;;;;;;0.30;0.30;;;;;;;12.56;83.91;98158.59;4987785;28;20046;-70
2023/09/27 06:51:45;;;;;;;0.20;0.20;;;;;;;12.64;84.62;98157.63;4990092;28;20046;-71
2023/09/27 06:54:13;;;;;;;0.13;0.10;;;;;;;12.78;84.47;98162.88;4991839;28;20044;-70
2023/09/27 06:56:42;;;;;;;0.20;0.20;;;;;;;13.08;84.20;98162.69;4986233;28;20527;-71
2023/09/27 06:59:10;;;;;;;0.20;0.20;;;;;;;13.20;85.83;98169.16;4987511;28;20049;-70
2023/09/27 07:01:38;;;;;;;0.13;0.13;;;;;;;13.27;85.66;98174.59;4998066;28;20053;-70
2023/09/27 07:04:08;;;;;;;0.22;0.22;;;;;;;13.33;85.87;98177.31;4987078;28;20054;-71
2023/09/27 07:06:36;;;;;;;0.20;0.20;;;;;;;13.41;84.80;98174.44;4988710;28;20047;-72
2023/09/27 07:09:06;;;;;;;0.20;0.20;;;;;;;13.50;84.64;98170.56;4989670;28;20524;-71
2023/09/27 07:11:35;;;;;;;0.17;0.17;;;;;;;13.56;83.71;98172.47;4987142;28;20046;-71
2023/09/27 07:14:02;;;;;;;0.10;0.10;;;;;;;13.60;83.65;98157.63;4991333;28;20057;-70
2023/09/27 07:16:30;;;;;;;0.10;0.10;;;;;;;13.62;83.54;98170.00;4987256;28;20463;-70
2023/09/27 07:19:05;;;;;;;0.28;0.28;;;;;;;13.70;83.49;98170.69;4992534;28;20043;-70
2023/09/27 07:21:34;;;;;;;0.20;0.20;;;;;;;13.78;83.64;98161.63;4985199;28;20105;-72
2023/09/27 07:24:03;;;;;;;0.20;0.20;;;;;;;13.84;83.30;98167.00;4991844;28;20133;-73
2023/09/27 07:26:32;;;;;;;0.22;0.22;;;;;;;13.94;83.39;98169.31;4988643;28;20051;-72
2023/09/27 07:29:00;;;;;;;0.35;0.35;;;;;;;14.02;83.61;98174.50;4981829;28;20057;-72
2023/09/27 07:31:29;;;;;;;0.10;0.10;;;;;;;14.18;84.05;98170.63;4987266;28;20053;-71
2023/09/27 07:33:57;;;;;;;0.17;0.17;;;;;;;14.22;84.26;98167.31;4990531;28;20114;-72
2023/09/27 07:36:25;;;;;;;0.20;0.20;;;;;;;14.31;84.36;98162.59;4991897;28;20070;-72
2023/09/27 07:38:55;;;;;;;0.17;0.17;;;;;;;14.40;83.93;98165.94;4988466;28;20060;-70
2023/09/27 07:41:23;;;;;;;0.20;0.20;;;;;;;14.47;83.54;98158.72;4991553;28;20074;-70
2023/09/27 07:43:52;;;;;;;0.17;0.17;;;;;;;14.56;83.32;98157.47;4985176;28;20518;-72
2023/09/27 07:46:20;;;;;;;0.20;0.20;;;;;;;14.63;83.13;98153.78;4992345;28;20051;-72
2023/09/27 07:48:49;;;;;;;0.10;0.10;;;;;;;14.73;82.98;98157.91;4988589;28;20042;-73
2023/09/27 07:51:18;;;;;;;0.20;0.20;;;;;;;14.77;82.90;98149.22;4988579;28;20110;-73
2023/09/27 07:53:46;;;;;;;0.20;0.20;;;;;;;14.82;83.18;98146.75;4988555;28;20045;-70
2023/09/27 07:56:19;;;;;;;0.30;0.25;;;;;;;14.89;83.24;98141.34;4984807;28;20094;-70
2023/09/27 07:58:49;;;;;;;0.20;0.20;;;;;;;14.98;83.33;98138.25;4998459;28;20109;-70
2023/09/27 08:01:20;;;;;;;0.20;0.20;;;;;;;15.10;83.21;98138.44;4984924;28;20046;-70
2023/09/27 08:03:49;;;;;;;0.20;0.20;;;;;;;15.17;83.12;98120.41;4990469;28;20034;-73
2023/09/27 08:06:17;;;;;;;0.03;0.03;;;;;;;15.25;83.12;98120.22;4988258;28;20469;-70
2023/09/27 08:08:45;;;;;;;0.20;0.20;;;;;;;15.36;83.07;98116.03;4980303;28;20038;-73
2023/09/27 08:11:14;;;;;;;0.10;0.10;;;;;;;15.46;82.95;98102.13;4998352;28;20050;-70
2023/09/27 08:13:41;;;;;;;0.30;0.30;;;;;;;15.54;82.99;98105.44;4976588;28;20041;-71
2023/09/27 08:16:09;;;;;;;0.22;0.22;;;;;;;15.65;82.91;98102.06;4986338;28;20050;-71
2023/09/27 08:18:39;;;;;;;0.10;0.10;;;;;;;15.75;82.53;98102.44;4975655;28;20047;-71
2023/09/27 08:21:06;;;;;;;0.22;0.20;;;;;;;15.85;81.98;98103.84;4989720;28;20078;-70
2023/09/27 08:23:34;;;;;;;0.20;0.20;;;;;;;15.96;82.22;98105.84;4986078;28;20050;-70
2023/09/27 08:26:02;;;;;;;0.10;0.10;;;;;;;16.06;82.24;98106.19;4989631;28;20062;-70
2023/09/27 08:28:31;;;;;;;0.20;0.17;;;;;;;16.28;82.50;98087.81;4990826;28;20447;-71
2023/09/27 08:30:59;;;;;;;0.10;0.10;;;;;;;16.39;81.97;98087.94;4991184;28;20141;-74
2023/09/27 08:33:28;;;;;;;0.40;0.20;;;;;;;16.48;82.13;98083.94;4986898;28;20095;-71
2023/09/27 08:35:57;;;;;;;0.22;0.22;;;;;;;16.59;81.86;98077.00;4992529;28;20129;-70
2023/09/27 08:38:27;;;;;;;0.20;0.20;;;;;;;16.79;81.80;98074.16;4989324;28;20046;-72
2023/09/27 08:40:55;;;;;;;0.20;0.20;;;;;;;16.84;81.65;98071.59;4991978;28;20047;-70
2023/09/27 08:43:22;;;;;;;0.30;0.30;;;;;;;16.93;81.43;98062.16;4992520;28;20423;-72
2023/09/27 08:45:52;;;;;;;0.13;0.10;;;;;;;16.97;81.35;98057.97;4984302;28;20046;-71
2023/09/27 08:48:22;;;;;;;0.10;0.10;;;;;;;17.04;81.04;98066.81;4987757;28;20109;-70
2023/09/27 08:50:50;;;;;;;0.13;0.13;;;;;;;17.12;81.60;98071.94;4991928;28;20046;-71
2023/09/27 08:53:19;;;;;;;0.10;0.10;;;;;;;17.19;80.93;98063.75;4984461;28;20061;-70
2023/09/27 08:55:48;;;;;;;0.22;0.22;;;;;;;17.40;80.61;98062.47;4988738;28;20469;-70
2023/09/27 08:58:20;;;;;;;0.17;0.13;;;;;;;17.56;80.41;98051.03;4991961;28;20074;-70
2023/09/27 09:00:48;;;;;;;0.20;0.20;;;;;;;17.75;79.72;98058.09;4983609;28;20043;-71
2023/09/27 09:03:16;;;;;;;0.20;0.20;;;;;;;17.89;79.18;98056.84;4982141;28;20113;-71
2023/09/27 09:05:45;;;;;;;0.20;0.20;;;;;;;18.06;78.71;98065.13;4987425;28;20113;-70
2023/09/27 09:08:13;;;;;;;0.20;0.20;;;;;;;18.22;78.25;98060.94;4982414;28;20053;-70
2023/09/27 09:10:47;;;;;;;0.20;0.20;;;;;;;18.22;78.00;98052.81;4986047;28;20109;-72
2023/09/27 09:13:15;;;;;;;0.10;0.10;;;;;;;18.25;78.39;98057.78;4983047;28;20034;-70
2023/09/27 09:15:45;;;;;;;0.10;0.10;;;;;;;18.31;77.53;98057.66;4984064;28;20047;-74
2023/09/27 09:18:14;;;;;;;0.10;0.10;;;;;;;18.39;77.49;98061.88;4981061;28;20077;-71
2023/09/27 09:20:51;;;;;;;0.10;0.10;;;;;;;18.51;77.45;98051.91;4986049;28;20050;-71
2023/09/27 09:23:30;;;;;;;0.13;0.13;;;;;;;18.58;76.44;98055.34;4988064;28;20065;-71
2023/09/27 09:25:59;;;;;;;0.20;0.20;;;;;;;18.66;76.73;98055.03;4983540;28;20065;-70
2023/09/27 09:28:27;;;;;;;0.20;0.20;;;;;;;18.76;76.73;98050.91;4984459;28;20052;-70
2023/09/27 09:30:55;;;;;;;0.20;0.10;;;;;;;18.94;75.42;98053.47;4988165;28;20042;-70
2023/09/27 09:33:24;;;;;;;0.17;0.10;;;;;;;19.04;75.18;98051.00;4984809;28;20605;-70
2023/09/27 09:35:53;;;;;;;0.20;0.20;;;;;;;19.10;74.76;98051.94;4992445;28;20136;-71
2023/09/27 09:38:25;;;;;;;0.30;0.30;;;;;;;19.17;74.78;98045.34;4988727;28;20060;-72
2023/09/27 09:40:54;;;;;;;0.10;0.10;;;;;;;19.20;74.42;98046.75;4990683;28;20059;-71
2023/09/27 09:43:31;;;;;;;0.20;0.20;;;;;;;19.23;74.53;98055.19;4987921;28;20060;-70
2023/09/27 09:46:00;;;;;;;0.10;0.10;;;;;;;19.31;73.88;98052.13;4989682;28;20069;-72
2023/09/27 09:48:28;;;;;;;0.10;0.10;;;;;;;19.36;74.01;98054.13;4983936;28;20046;-75
2023/09/27 09:51:02;;;;;;;0.17;0.17;;;;;;;19.59;72.64;98050.56;4978034;28;20054;-71
2023/09/27 09:53:30;;;;;;;0.10;0.10;;;;;;;19.59;72.57;98045.97;4986510;28;20051;-72
2023/09/27 09:56:00;;;;;;;0.10;0.10;;;;;;;19.64;72.98;98051.47;4987313;28;20038;-70
2023/09/27 09:58:54;;;;;;;0.10;0.10;;;;;;;19.69;72.56;98048.88;4992692;28;20050;-70
2023/09/27 10:01:26;;;;;;;0.10;0.10;;;;;;;19.77;72.28;98043.06;4987863;28;20042;-70
2023/09/27 10:03:54;;;;;;;0.10;0.10;;;;;;;19.82;72.23;98047.75;4997399;28;20042;-70
2023/09/27 10:06:22;;;;;;;0.10;0.10;;;;;;;19.85;71.83;98052.66;4986962;28;20061;-70
2023/09/27 10:09:13;;;;;;;0.10;0.10;;;;;;;19.94;71.80;98048.50;4997876;28;20105;-70
2023/09/27 10:11:44;;;;;;;;;;;;;;;20.26;70.68;98050.69;4995031;28;20522;-71
2023/09/27 10:14:16;;;;;;;0.20;0.20;;;;;;;20.29;70.81;98048.31;4989917;28;19921;-70
2023/09/27 10:16:45;;;;;;;0.10;0.10;;;;;;;20.34;69.93;98048.41;4992780;28;20041;-70
2023/09/27 10:19:13;;;;;;;0.10;0.10;;;;;;;20.40;70.31;98043.91;4991903;28;20049;-73
2023/09/27 10:22:02;;;;;;;0.20;0.20;;;;;;;20.42;70.64;98047.22;4989675;28;20039;-71
2023/09/27 10:24:29;;;;;;;0.10;0.10;;;;;;;20.49;69.58;98045.16;4988128;28;20042;-71
2023/09/27 10:26:57;;;;;;;0.20;0.20;;;;;;;20.53;70.05;98035.47;4990387;28;20042;-70
2023/09/27 10:29:27;;;;;;;0.10;0.10;;;;;;;20.60;69.59;98030.69;4987836;28;20046;-70
2023/09/27 10:32:21;;;;;;;0.20;0.20;;;;;;;20.64;70.01;98029.13;4990069;28;20403;-71
2023/09/27 10:34:56;;;;;;;0.30;0.20;;;;;;;20.69;70.41;98026.47;4992055;28;20093;-71
2023/09/27 10:37:59;;;;;;;0.10;0.10;;;;;;;20.75;69.39;98020.06;4982045;28;20526;-71
2023/09/27 10:40:27;;;;;;;0.10;0.10;;;;;;;20.86;68.80;98019.13;4992338;28;20042;-71
2023/09/27 10:42:55;;;;;;;0.00;0.00;;;;;;;20.93;69.23;98023.56;4993998;28;20351;-74
2023/09/27 10:45:24;;;;;;;0.00;0.00;;;;;;;20.98;69.11;98013.56;4989473;28;20248;-73
2023/09/27 10:47:54;;;;;;;0.10;0.10;;;;;;;21.05;68.91;98010.69;4993947;28;20472;-73
2023/09/27 10:50:29;;;;;;;0.10;0.10;;;;;;;21.27;67.78;98014.28;4988442;28;20460;-71
2023/09/27 10:52:59;;;;;;;0.20;0.20;;;;;;;21.37;66.99;98010.88;4993462;28;20042;-71
2023/09/27 10:55:26;;;;;;;0.10;0.10;;;;;;;21.54;66.73;98008.88;4987111;28;20057;-71
2023/09/27 10:57:54;;;;;;;0.10;0.10;;;;;;;21.66;67.27;97997.88;4993427;28;20411;-73
2023/09/27 11:00:23;;;;;;;0.20;0.20;;;;;;;21.73;67.40;97998.47;4987816;28;20117;-75
2023/09/27 11:02:51;;;;;;;0.20;0.20;;;;;;;21.83;66.89;97991.25;4996058;28;20066;-71
2023/09/27 11:05:24;;;;;;;0.15;0.10;;;;;;;21.91;67.40;97990.78;4994029;28;20113;-72
2023/09/27 11:07:52;;;;;;;0.15;0.15;;;;;;;22.00;66.08;97990.38;4993926;28;20097;-71
2023/09/27 11:10:30;;;;;;;0.10;0.10;;;;;;;22.12;65.45;97985.56;4990318;28;20046;-71
2023/09/27 11:13:07;;;;;;;0.00;0.00;;;;;;;22.22;65.34;97983.72;4993908;28;20077;-70
2023/09/27 11:15:36;;;;;;;0.20;0.20;;;;;;;22.34;65.81;97983.56;4986664;28;20093;-72
2023/09/27 11:18:05;;;;;;;0.20;0.20;;;;;;;22.49;65.14;97969.25;4987634;28;20077;-70
2023/09/27 11:20:32;;;;;;;0.03;0.03;;;;;;;22.64;64.83;97974.78;4985192;28;20088;-72
2023/09/27 11:23:02;;;;;;;0.30;0.20;;;;;;;22.80;64.18;97975.75;4995378;28;20111;-70
2023/09/27 11:25:30;;;;;;;0.10;0.10;;;;;;;22.95;63.60;97975.81;4989780;28;20067;-71
2023/09/27 11:27:58;;;;;;;0.10;0.10;;;;;;;23.15;62.53;97975.94;4978399;28;20053;-71
2023/09/27 11:30:28;;;;;;;0.10;0.10;;;;;;;23.31;60.95;97963.16;4992733;28;20049;-71
2023/09/27 11:32:57;;;;;;;0.10;0.10;;;;;;;23.46;60.98;97965.13;4989025;28;20496;-71
2023/09/27 11:35:26;;;;;;;0.00;0.00;;;;;;;23.62;60.62;97954.03;4991670;28;20575;-72
2023/09/27 11:38:09;;;;;;;0.10;0.10;;;;;;;23.77;59.72;97953.25;4988243;28;20060;-71
2023/09/27 11:40:37;;;;;;;0.08;0.08;;;;;;;23.93;59.05;97952.16;4992345;28;20046;-71
2023/09/27 11:43:05;;;;;;;0.10;0.10;;;;;;;24.12;59.02;97941.50;4991994;28;20500;-73